sensor_id;sensor_type;location;lat;lon;timestamp;P1;durP1;ratioP1;P2;durP2;ratioP2
33644;SDS011;19986;48.190;16.366;2023-09-07T00:00:42;40.85;;;38.33;;
33644;SDS011;19986;48.190;16.366;2023-09-07T00:03:08;39.60;;;36.78;;
33644;SDS011;19986;48.190;16.366;2023-09-07T00:05:34;38.78;;;36.25;;
33644;SDS011;19986;48.190;16.366;2023-09-07T00:08:00;38.33;;;35.60;;
33644;SDS011;19986;48.190;16.366;2023-09-07T00:10:26;40.53;;;37.67;;
33644;SDS011;19986;48.190;16.366;2023-09-07T00:12:52;41.20;;;38.55;;
33644;SDS011;19986;48.190;16.366;2023-09-07T00:15:18;38.35;;;35.95;;
33644;SDS011;19986;48.190;16.366;2023-09-07T00:17:45;39.05;;;35.80;;
33644;SDS011;19986;48.190;16.366;2023-09-07T00:20:11;41.35;;;38.80;;
33644;SDS011;19986;48.190;16.366;2023-09-07T00:22:39;39.95;;;37.22;;
33644;SDS011;19986;48.190;16.366;2023-09-07T00:25:05;39.72;;;36.92;;
33644;SDS011;19986;48.190;16.366;2023-09-07T00:27:32;39.35;;;36.78;;
33644;SDS011;19986;48.190;16.366;2023-09-07T00:29:59;38.03;;;35.63;;
33644;SDS011;19986;48.190;16.366;2023-09-07T00:32:25;40.55;;;37.58;;
33644;SDS011;19986;48.190;16.366;2023-09-07T00:34:50;42.25;;;39.40;;
33644;SDS011;19986;48.190;16.366;2023-09-07T00:37:16;39.65;;;37.15;;
33644;SDS011;19986;48.190;16.366;2023-09-07T00:39:42;38.13;;;35.30;;
33644;SDS011;19986;48.190;16.366;2023-09-07T00:42:08;37.75;;;35.22;;
33644;SDS011;19986;48.190;16.366;2023-09-07T00:44:34;41.40;;;38.60;;
33644;SDS011;19986;48.190;16.366;2023-09-07T00:46:59;39.40;;;36.83;;
33644;SDS011;19986;48.190;16.366;2023-09-07T00:49:26;39.35;;;36.75;;
33644;SDS011;19986;48.190;16.366;2023-09-07T00:51:52;39.35;;;36.55;;
33644;SDS011;19986;48.190;16.366;2023-09-07T00:54:18;39.53;;;37.00;;
33644;SDS011;19986;48.190;16.366;2023-09-07T00:56:45;40.42;;;37.92;;
33644;SDS011;19986;48.190;16.366;2023-09-07T00:59:11;39.15;;;36.65;;
33644;SDS011;19986;48.190;16.366;2023-09-07T01:01:38;38.58;;;35.88;;
33644;SDS011;19986;48.190;16.366;2023-09-07T01:04:04;39.85;;;37.10;;
33644;SDS011;19986;48.190;16.366;2023-09-07T01:06:30;38.75;;;36.05;;
33644;SDS011;19986;48.190;16.366;2023-09-07T01:09:03;40.58;;;37.72;;
33644;SDS011;19986;48.190;16.366;2023-09-07T01:11:36;38.45;;;36.20;;
33644;SDS011;19986;48.190;16.366;2023-09-07T01:14:03;39.40;;;36.58;;
33644;SDS011;19986;48.190;16.366;2023-09-07T01:16:29;39.05;;;36.60;;
33644;SDS011;19986;48.190;16.366;2023-09-07T01:18:56;40.15;;;37.45;;
33644;SDS011;19986;48.190;16.366;2023-09-07T01:21:23;41.40;;;38.67;;
33644;SDS011;19986;48.190;16.366;2023-09-07T01:23:50;40.13;;;37.50;;
33644;SDS011;19986;48.190;16.366;2023-09-07T01:26:17;41.08;;;37.92;;
33644;SDS011;19986;48.190;16.366;2023-09-07T01:28:43;41.17;;;38.35;;
33644;SDS011;19986;48.190;16.366;2023-09-07T01:31:09;40.75;;;38.10;;
33644;SDS011;19986;48.190;16.366;2023-09-07T01:33:34;41.40;;;38.80;;
33644;SDS011;19986;48.190;16.366;2023-09-07T01:36:00;38.72;;;36.38;;
33644;SDS011;19986;48.190;16.366;2023-09-07T01:38:27;39.75;;;37.05;;
33644;SDS011;19986;48.190;16.366;2023-09-07T01:40:53;41.17;;;38.80;;
33644;SDS011;19986;48.190;16.366;2023-09-07T01:43:20;40.20;;;37.60;;
33644;SDS011;19986;48.190;16.366;2023-09-07T01:45:46;38.60;;;36.38;;
33644;SDS011;19986;48.190;16.366;2023-09-07T01:48:14;38.55;;;36.13;;
33644;SDS011;19986;48.190;16.366;2023-09-07T01:50:41;39.80;;;37.38;;
33644;SDS011;19986;48.190;16.366;2023-09-07T01:53:07;39.13;;;36.90;;
33644;SDS011;19986;48.190;16.366;2023-09-07T01:55:33;39.42;;;36.75;;
33644;SDS011;19986;48.190;16.366;2023-09-07T01:58:00;40.53;;;38.05;;
33644;SDS011;19986;48.190;16.366;2023-09-07T02:00:26;41.03;;;38.35;;
33644;SDS011;19986;48.190;16.366;2023-09-07T02:02:53;38.65;;;36.03;;
33644;SDS011;19986;48.190;16.366;2023-09-07T02:05:23;40.90;;;38.28;;
33644;SDS011;19986;48.190;16.366;2023-09-07T02:07:49;39.55;;;36.70;;
33644;SDS011;19986;48.190;16.366;2023-09-07T02:10:15;40.03;;;37.35;;
33644;SDS011;19986;48.190;16.366;2023-09-07T02:12:40;39.20;;;36.50;;
33644;SDS011;19986;48.190;16.366;2023-09-07T02:15:06;39.80;;;37.08;;
33644;SDS011;19986;48.190;16.366;2023-09-07T02:17:32;42.25;;;39.53;;
33644;SDS011;19986;48.190;16.366;2023-09-07T02:19:58;40.28;;;37.58;;
33644;SDS011;19986;48.190;16.366;2023-09-07T02:22:24;41.67;;;39.05;;
33644;SDS011;19986;48.190;16.366;2023-09-07T02:24:50;39.08;;;36.58;;
33644;SDS011;19986;48.190;16.366;2023-09-07T02:27:15;38.95;;;36.55;;
33644;SDS011;19986;48.190;16.366;2023-09-07T02:29:41;42.20;;;39.08;;
33644;SDS011;19986;48.190;16.366;2023-09-07T02:32:07;41.72;;;39.22;;
33644;SDS011;19986;48.190;16.366;2023-09-07T02:34:34;42.63;;;39.80;;
33644;SDS011;19986;48.190;16.366;2023-09-07T02:37:01;41.15;;;38.75;;
33644;SDS011;19986;48.190;16.366;2023-09-07T02:39:28;39.65;;;37.33;;
33644;SDS011;19986;48.190;16.366;2023-09-07T02:41:54;39.28;;;36.88;;
33644;SDS011;19986;48.190;16.366;2023-09-07T02:44:20;40.90;;;38.42;;
33644;SDS011;19986;48.190;16.366;2023-09-07T02:46:45;42.17;;;39.10;;
33644;SDS011;19986;48.190;16.366;2023-09-07T02:49:12;42.50;;;39.63;;
33644;SDS011;19986;48.190;16.366;2023-09-07T02:51:38;42.50;;;39.90;;
33644;SDS011;19986;48.190;16.366;2023-09-07T02:54:04;40.88;;;38.47;;
33644;SDS011;19986;48.190;16.366;2023-09-07T02:56:30;40.20;;;37.80;;
33644;SDS011;19986;48.190;16.366;2023-09-07T02:58:56;42.80;;;39.88;;
33644;SDS011;19986;48.190;16.366;2023-09-07T03:01:22;40.50;;;37.92;;
33644;SDS011;19986;48.190;16.366;2023-09-07T03:03:48;41.85;;;39.22;;
33644;SDS011;19986;48.190;16.366;2023-09-07T03:06:14;39.17;;;36.88;;
33644;SDS011;19986;48.190;16.366;2023-09-07T03:08:44;40.60;;;38.03;;
33644;SDS011;19986;48.190;16.366;2023-09-07T03:11:10;42.20;;;39.28;;
33644;SDS011;19986;48.190;16.366;2023-09-07T03:13:36;42.58;;;39.90;;
33644;SDS011;19986;48.190;16.366;2023-09-07T03:16:03;42.15;;;39.28;;
33644;SDS011;19986;48.190;16.366;2023-09-07T03:18:29;41.25;;;38.65;;
33644;SDS011;19986;48.190;16.366;2023-09-07T03:20:58;40.88;;;38.33;;
33644;SDS011;19986;48.190;16.366;2023-09-07T03:23:24;41.03;;;38.63;;
33644;SDS011;19986;48.190;16.366;2023-09-07T03:25:50;42.00;;;39.28;;
33644;SDS011;19986;48.190;16.366;2023-09-07T03:28:16;43.90;;;41.15;;
33644;SDS011;19986;48.190;16.366;2023-09-07T03:30:42;40.83;;;38.13;;
33644;SDS011;19986;48.190;16.366;2023-09-07T03:33:08;41.40;;;38.83;;
33644;SDS011;19986;48.190;16.366;2023-09-07T03:35:33;41.10;;;38.33;;
33644;SDS011;19986;48.190;16.366;2023-09-07T03:37:59;41.15;;;38.70;;
33644;SDS011;19986;48.190;16.366;2023-09-07T03:40:25;39.88;;;37.42;;
33644;SDS011;19986;48.190;16.366;2023-09-07T03:42:51;39.72;;;37.25;;
33644;SDS011;19986;48.190;16.366;2023-09-07T03:45:17;41.90;;;39.17;;
33644;SDS011;19986;48.190;16.366;2023-09-07T03:47:43;40.55;;;38.20;;
33644;SDS011;19986;48.190;16.366;2023-09-07T03:50:09;42.28;;;39.45;;
33644;SDS011;19986;48.190;16.366;2023-09-07T03:52:35;42.55;;;39.83;;
33644;SDS011;19986;48.190;16.366;2023-09-07T03:55:01;39.08;;;36.88;;
33644;SDS011;19986;48.190;16.366;2023-09-07T03:57:27;40.40;;;37.90;;
33644;SDS011;19986;48.190;16.366;2023-09-07T03:59:53;40.78;;;38.50;;
33644;SDS011;19986;48.190;16.366;2023-09-07T04:02:22;39.83;;;37.50;;
33644;SDS011;19986;48.190;16.366;2023-09-07T04:04:49;40.10;;;37.80;;
33644;SDS011;19986;48.190;16.366;2023-09-07T04:07:16;40.58;;;37.95;;
33644;SDS011;19986;48.190;16.366;2023-09-07T04:09:43;39.88;;;37.28;;
33644;SDS011;19986;48.190;16.366;2023-09-07T04:12:10;41.97;;;39.28;;
33644;SDS011;19986;48.190;16.366;2023-09-07T04:14:36;41.45;;;38.78;;
33644;SDS011;19986;48.190;16.366;2023-09-07T04:17:02;42.60;;;40.25;;
33644;SDS011;19986;48.190;16.366;2023-09-07T04:19:28;42.92;;;39.97;;
33644;SDS011;19986;48.190;16.366;2023-09-07T04:21:53;41.70;;;39.30;;
33644;SDS011;19986;48.190;16.366;2023-09-07T04:24:19;41.88;;;39.35;;
33644;SDS011;19986;48.190;16.366;2023-09-07T04:26:45;41.38;;;38.85;;
33644;SDS011;19986;48.190;16.366;2023-09-07T04:29:12;39.97;;;37.78;;
33644;SDS011;19986;48.190;16.366;2023-09-07T04:31:38;40.63;;;38.20;;
33644;SDS011;19986;48.190;16.366;2023-09-07T04:34:04;39.22;;;36.83;;
33644;SDS011;19986;48.190;16.366;2023-09-07T04:36:30;40.03;;;37.72;;
33644;SDS011;19986;48.190;16.366;2023-09-07T04:38:56;42.20;;;39.03;;
33644;SDS011;19986;48.190;16.366;2023-09-07T04:41:22;42.25;;;39.80;;
33644;SDS011;19986;48.190;16.366;2023-09-07T04:43:48;42.55;;;39.95;;
33644;SDS011;19986;48.190;16.366;2023-09-07T04:46:14;41.17;;;38.45;;
33644;SDS011;19986;48.190;16.366;2023-09-07T04:48:40;40.78;;;38.13;;
33644;SDS011;19986;48.190;16.366;2023-09-07T04:51:07;40.10;;;37.53;;
33644;SDS011;19986;48.190;16.366;2023-09-07T04:53:37;41.70;;;39.30;;
33644;SDS011;19986;48.190;16.366;2023-09-07T04:56:04;42.55;;;39.75;;
33644;SDS011;19986;48.190;16.366;2023-09-07T04:58:31;46.25;;;43.15;;
33644;SDS011;19986;48.190;16.366;2023-09-07T05:01:01;43.10;;;40.10;;
33644;SDS011;19986;48.190;16.366;2023-09-07T05:03:28;43.13;;;40.05;;
33644;SDS011;19986;48.190;16.366;2023-09-07T05:05:54;43.60;;;40.63;;
33644;SDS011;19986;48.190;16.366;2023-09-07T05:08:21;41.90;;;39.33;;
33644;SDS011;19986;48.190;16.366;2023-09-07T05:10:48;42.70;;;40.20;;
33644;SDS011;19986;48.190;16.366;2023-09-07T05:13:14;41.78;;;38.55;;
33644;SDS011;19986;48.190;16.366;2023-09-07T05:15:47;41.33;;;38.83;;
33644;SDS011;19986;48.190;16.366;2023-09-07T05:18:14;42.92;;;39.70;;
33644;SDS011;19986;48.190;16.366;2023-09-07T05:20:40;41.45;;;38.85;;
33644;SDS011;19986;48.190;16.366;2023-09-07T05:23:05;44.50;;;41.45;;
33644;SDS011;19986;48.190;16.366;2023-09-07T05:25:32;41.15;;;38.42;;
33644;SDS011;19986;48.190;16.366;2023-09-07T05:27:58;41.83;;;39.38;;
33644;SDS011;19986;48.190;16.366;2023-09-07T05:30:23;42.47;;;39.60;;
33644;SDS011;19986;48.190;16.366;2023-09-07T05:32:50;41.60;;;38.40;;
33644;SDS011;19986;48.190;16.366;2023-09-07T05:35:16;39.90;;;37.40;;
33644;SDS011;19986;48.190;16.366;2023-09-07T05:37:42;40.95;;;37.88;;
33644;SDS011;19986;48.190;16.366;2023-09-07T05:40:08;41.55;;;38.65;;
33644;SDS011;19986;48.190;16.366;2023-09-07T05:42:34;42.92;;;39.22;;
33644;SDS011;19986;48.190;16.366;2023-09-07T05:45:00;41.45;;;38.83;;
33644;SDS011;19986;48.190;16.366;2023-09-07T05:47:26;42.92;;;40.33;;
33644;SDS011;19986;48.190;16.366;2023-09-07T05:49:52;42.05;;;39.45;;
33644;SDS011;19986;48.190;16.366;2023-09-07T05:52:17;41.55;;;38.92;;
33644;SDS011;19986;48.190;16.366;2023-09-07T05:54:43;42.92;;;40.03;;
33644;SDS011;19986;48.190;16.366;2023-09-07T05:57:09;41.78;;;39.20;;
33644;SDS011;19986;48.190;16.366;2023-09-07T05:59:35;42.10;;;39.35;;
33644;SDS011;19986;48.190;16.366;2023-09-07T06:02:00;45.50;;;41.25;;
33644;SDS011;19986;48.190;16.366;2023-09-07T06:04:27;42.28;;;39.47;;
33644;SDS011;19986;48.190;16.366;2023-09-07T06:06:52;43.00;;;38.78;;
33644;SDS011;19986;48.190;16.366;2023-09-07T06:09:19;39.60;;;36.45;;
33644;SDS011;19986;48.190;16.366;2023-09-07T06:11:45;42.15;;;39.35;;
33644;SDS011;19986;48.190;16.366;2023-09-07T06:14:11;42.70;;;38.95;;
33644;SDS011;19986;48.190;16.366;2023-09-07T06:16:37;43.28;;;40.20;;
33644;SDS011;19986;48.190;16.366;2023-09-07T06:19:04;42.88;;;39.70;;
33644;SDS011;19986;48.190;16.366;2023-09-07T06:21:31;43.80;;;40.15;;
33644;SDS011;19986;48.190;16.366;2023-09-07T06:23:57;42.28;;;39.28;;
33644;SDS011;19986;48.190;16.366;2023-09-07T06:26:23;40.47;;;38.10;;
33644;SDS011;19986;48.190;16.366;2023-09-07T06:28:49;39.88;;;37.15;;
33644;SDS011;19986;48.190;16.366;2023-09-07T06:31:14;41.13;;;38.75;;
33644;SDS011;19986;48.190;16.366;2023-09-07T06:33:40;42.25;;;39.55;;
33644;SDS011;19986;48.190;16.366;2023-09-07T06:36:06;42.63;;;39.55;;
33644;SDS011;19986;48.190;16.366;2023-09-07T06:38:32;41.83;;;39.05;;
33644;SDS011;19986;48.190;16.366;2023-09-07T06:40:58;39.72;;;37.13;;
33644;SDS011;19986;48.190;16.366;2023-09-07T06:43:23;40.47;;;37.13;;
33644;SDS011;19986;48.190;16.366;2023-09-07T06:45:49;39.15;;;36.63;;
33644;SDS011;19986;48.190;16.366;2023-09-07T06:48:15;37.63;;;35.17;;
33644;SDS011;19986;48.190;16.366;2023-09-07T06:50:41;39.28;;;36.92;;
33644;SDS011;19986;48.190;16.366;2023-09-07T06:53:07;39.50;;;37.10;;
33644;SDS011;19986;48.190;16.366;2023-09-07T06:55:33;39.35;;;36.75;;
33644;SDS011;19986;48.190;16.366;2023-09-07T06:58:02;41.08;;;38.67;;
33644;SDS011;19986;48.190;16.366;2023-09-07T07:00:28;39.08;;;36.65;;
33644;SDS011;19986;48.190;16.366;2023-09-07T07:02:53;40.20;;;36.65;;
33644;SDS011;19986;48.190;16.366;2023-09-07T07:05:19;40.55;;;36.80;;
33644;SDS011;19986;48.190;16.366;2023-09-07T07:07:47;39.80;;;37.25;;
33644;SDS011;19986;48.190;16.366;2023-09-07T07:10:13;39.15;;;36.80;;
33644;SDS011;19986;48.190;16.366;2023-09-07T07:12:39;40.88;;;38.25;;
33644;SDS011;19986;48.190;16.366;2023-09-07T07:15:05;42.13;;;39.22;;
33644;SDS011;19986;48.190;16.366;2023-09-07T07:17:32;42.40;;;39.38;;
33644;SDS011;19986;48.190;16.366;2023-09-07T07:19:58;40.28;;;37.88;;
33644;SDS011;19986;48.190;16.366;2023-09-07T07:22:24;43.65;;;40.70;;
33644;SDS011;19986;48.190;16.366;2023-09-07T07:24:50;42.05;;;39.55;;
33644;SDS011;19986;48.190;16.366;2023-09-07T07:27:15;41.60;;;37.95;;
33644;SDS011;19986;48.190;16.366;2023-09-07T07:29:41;40.60;;;37.95;;
33644;SDS011;19986;48.190;16.366;2023-09-07T07:32:08;41.80;;;39.15;;
33644;SDS011;19986;48.190;16.366;2023-09-07T07:34:33;42.13;;;39.08;;
33644;SDS011;19986;48.190;16.366;2023-09-07T07:36:59;42.78;;;39.90;;
33644;SDS011;19986;48.190;16.366;2023-09-07T07:39:25;40.92;;;38.45;;
33644;SDS011;19986;48.190;16.366;2023-09-07T07:41:51;42.83;;;40.05;;
33644;SDS011;19986;48.190;16.366;2023-09-07T07:44:17;40.53;;;37.92;;
33644;SDS011;19986;48.190;16.366;2023-09-07T07:46:42;44.20;;;41.20;;
33644;SDS011;19986;48.190;16.366;2023-09-07T07:49:08;41.95;;;39.38;;
33644;SDS011;19986;48.190;16.366;2023-09-07T07:51:34;38.78;;;36.28;;
33644;SDS011;19986;48.190;16.366;2023-09-07T07:54:00;40.30;;;37.70;;
33644;SDS011;19986;48.190;16.366;2023-09-07T07:56:25;42.38;;;39.80;;
33644;SDS011;19986;48.190;16.366;2023-09-07T07:58:51;41.33;;;38.58;;
33644;SDS011;19986;48.190;16.366;2023-09-07T08:01:17;42.55;;;39.25;;
33644;SDS011;19986;48.190;16.366;2023-09-07T08:03:45;39.92;;;37.67;;
33644;SDS011;19986;48.190;16.366;2023-09-07T08:06:11;38.28;;;36.13;;
33644;SDS011;19986;48.190;16.366;2023-09-07T08:08:38;38.10;;;35.47;;
33644;SDS011;19986;48.190;16.366;2023-09-07T08:11:04;40.90;;;38.38;;
33644;SDS011;19986;48.190;16.366;2023-09-07T08:13:32;39.35;;;36.97;;
33644;SDS011;19986;48.190;16.366;2023-09-07T08:15:59;40.47;;;37.88;;
33644;SDS011;19986;48.190;16.366;2023-09-07T08:18:26;41.85;;;39.05;;
33644;SDS011;19986;48.190;16.366;2023-09-07T08:20:53;40.42;;;38.08;;
33644;SDS011;19986;48.190;16.366;2023-09-07T08:23:20;38.08;;;35.42;;
33644;SDS011;19986;48.190;16.366;2023-09-07T08:25:48;40.15;;;37.75;;
33644;SDS011;19986;48.190;16.366;2023-09-07T08:28:15;38.28;;;35.97;;
33644;SDS011;19986;48.190;16.366;2023-09-07T08:30:43;37.92;;;35.45;;
33644;SDS011;19986;48.190;16.366;2023-09-07T08:33:09;38.40;;;35.78;;
33644;SDS011;19986;48.190;16.366;2023-09-07T08:35:35;38.63;;;36.08;;
33644;SDS011;19986;48.190;16.366;2023-09-07T08:38:09;39.53;;;36.88;;
33644;SDS011;19986;48.190;16.366;2023-09-07T08:40:36;39.15;;;36.55;;
33644;SDS011;19986;48.190;16.366;2023-09-07T08:43:05;37.58;;;35.15;;
33644;SDS011;19986;48.190;16.366;2023-09-07T08:45:40;39.83;;;37.03;;
33644;SDS011;19986;48.190;16.366;2023-09-07T08:48:13;36.65;;;34.28;;
33644;SDS011;19986;48.190;16.366;2023-09-07T08:50:42;36.15;;;33.75;;
33644;SDS011;19986;48.190;16.366;2023-09-07T08:53:16;38.10;;;35.47;;
33644;SDS011;19986;48.190;16.366;2023-09-07T08:55:44;39.20;;;36.72;;
33644;SDS011;19986;48.190;16.366;2023-09-07T08:58:10;34.97;;;32.47;;
33644;SDS011;19986;48.190;16.366;2023-09-07T09:00:37;35.90;;;33.35;;
33644;SDS011;19986;48.190;16.366;2023-09-07T09:03:03;37.95;;;35.65;;
33644;SDS011;19986;48.190;16.366;2023-09-07T09:05:30;38.58;;;35.75;;
33644;SDS011;19986;48.190;16.366;2023-09-07T09:08:00;38.78;;;35.88;;
33644;SDS011;19986;48.190;16.366;2023-09-07T09:10:28;37.00;;;34.35;;
33644;SDS011;19986;48.190;16.366;2023-09-07T09:12:54;38.97;;;36.03;;
33644;SDS011;19986;48.190;16.366;2023-09-07T09:15:22;37.72;;;35.20;;
33644;SDS011;19986;48.190;16.366;2023-09-07T09:17:48;35.92;;;33.70;;
33644;SDS011;19986;48.190;16.366;2023-09-07T09:20:20;38.72;;;35.80;;
33644;SDS011;19986;48.190;16.366;2023-09-07T09:22:53;37.78;;;35.15;;
33644;SDS011;19986;48.190;16.366;2023-09-07T09:25:20;35.72;;;33.63;;
33644;SDS011;19986;48.190;16.366;2023-09-07T09:27:46;36.42;;;34.05;;
33644;SDS011;19986;48.190;16.366;2023-09-07T09:30:13;37.42;;;34.88;;
33644;SDS011;19986;48.190;16.366;2023-09-07T09:32:42;36.13;;;33.50;;
33644;SDS011;19986;48.190;16.366;2023-09-07T09:35:08;34.95;;;32.90;;
33644;SDS011;19986;48.190;16.366;2023-09-07T09:37:43;35.80;;;33.45;;
33644;SDS011;19986;48.190;16.366;2023-09-07T09:40:09;36.33;;;34.35;;
33644;SDS011;19986;48.190;16.366;2023-09-07T09:42:36;36.63;;;34.15;;
33644;SDS011;19986;48.190;16.366;2023-09-07T09:45:04;35.58;;;33.20;;
33644;SDS011;19986;48.190;16.366;2023-09-07T09:47:32;34.40;;;32.25;;
33644;SDS011;19986;48.190;16.366;2023-09-07T09:50:00;35.70;;;33.45;;
33644;SDS011;19986;48.190;16.366;2023-09-07T09:52:31;34.88;;;32.80;;
33644;SDS011;19986;48.190;16.366;2023-09-07T09:55:00;35.28;;;33.38;;
33644;SDS011;19986;48.190;16.366;2023-09-07T09:57:26;36.60;;;33.95;;
33644;SDS011;19986;48.190;16.366;2023-09-07T09:59:54;35.55;;;32.47;;
33644;SDS011;19986;48.190;16.366;2023-09-07T10:02:21;35.08;;;33.17;;
33644;SDS011;19986;48.190;16.366;2023-09-07T10:04:47;33.90;;;31.92;;
33644;SDS011;19986;48.190;16.366;2023-09-07T10:07:13;32.80;;;31.00;;
33644;SDS011;19986;48.190;16.366;2023-09-07T10:09:39;34.67;;;32.75;;
33644;SDS011;19986;48.190;16.366;2023-09-07T10:12:05;32.88;;;30.45;;
33644;SDS011;19986;48.190;16.366;2023-09-07T10:14:38;32.80;;;30.75;;
33644;SDS011;19986;48.190;16.366;2023-09-07T10:17:05;33.13;;;31.30;;
33644;SDS011;19986;48.190;16.366;2023-09-07T10:19:31;35.33;;;32.92;;
33644;SDS011;19986;48.190;16.366;2023-09-07T10:21:57;37.97;;;35.15;;
33644;SDS011;19986;48.190;16.366;2023-09-07T10:24:32;33.17;;;31.40;;
33644;SDS011;19986;48.190;16.366;2023-09-07T10:27:04;34.80;;;32.30;;
33644;SDS011;19986;48.190;16.366;2023-09-07T10:29:44;33.80;;;31.45;;
33644;SDS011;19986;48.190;16.366;2023-09-07T10:32:12;33.20;;;31.27;;
33644;SDS011;19986;48.190;16.366;2023-09-07T10:34:40;31.88;;;29.48;;
33644;SDS011;19986;48.190;16.366;2023-09-07T10:37:15;31.73;;;29.83;;
33644;SDS011;19986;48.190;16.366;2023-09-07T10:39:41;34.17;;;31.90;;
33644;SDS011;19986;48.190;16.366;2023-09-07T10:42:23;34.13;;;32.22;;
33644;SDS011;19986;48.190;16.366;2023-09-07T10:44:50;36.40;;;33.75;;
33644;SDS011;19986;48.190;16.366;2023-09-07T10:47:16;33.83;;;32.03;;
33644;SDS011;19986;48.190;16.366;2023-09-07T10:49:42;33.95;;;31.73;;
33644;SDS011;19986;48.190;16.366;2023-09-07T10:52:07;34.53;;;32.70;;
33644;SDS011;19986;48.190;16.366;2023-09-07T10:54:34;33.50;;;31.58;;
33644;SDS011;19986;48.190;16.366;2023-09-07T10:57:12;34.25;;;31.52;;
33644;SDS011;19986;48.190;16.366;2023-09-07T10:59:46;34.97;;;31.38;;
33644;SDS011;19986;48.190;16.366;2023-09-07T11:02:12;32.88;;;30.27;;
33644;SDS011;19986;48.190;16.366;2023-09-07T11:04:40;31.77;;;29.70;;
33644;SDS011;19986;48.190;16.366;2023-09-07T11:07:06;32.20;;;30.27;;
33644;SDS011;19986;48.190;16.366;2023-09-07T11:09:32;307.40;;;47.08;;
33644;SDS011;19986;48.190;16.366;2023-09-07T11:12:04;104.53;;;35.35;;
33644;SDS011;19986;48.190;16.366;2023-09-07T11:14:30;34.35;;;30.83;;
33644;SDS011;19986;48.190;16.366;2023-09-07T11:16:56;32.13;;;30.05;;
33644;SDS011;19986;48.190;16.366;2023-09-07T11:19:22;32.30;;;30.30;;
33644;SDS011;19986;48.190;16.366;2023-09-07T11:21:48;31.38;;;29.77;;
33644;SDS011;19986;48.190;16.366;2023-09-07T11:24:14;31.83;;;29.73;;
33644;SDS011;19986;48.190;16.366;2023-09-07T11:26:40;31.13;;;29.42;;
33644;SDS011;19986;48.190;16.366;2023-09-07T11:29:08;32.60;;;30.60;;
33644;SDS011;19986;48.190;16.366;2023-09-07T11:31:33;32.22;;;30.45;;
33644;SDS011;19986;48.190;16.366;2023-09-07T11:33:59;32.17;;;30.50;;
33644;SDS011;19986;48.190;16.366;2023-09-07T11:36:25;33.67;;;31.63;;
33644;SDS011;19986;48.190;16.366;2023-09-07T11:38:51;32.70;;;30.80;;
33644;SDS011;19986;48.190;16.366;2023-09-07T11:41:16;32.53;;;30.63;;
33644;SDS011;19986;48.190;16.366;2023-09-07T11:43:42;31.35;;;29.15;;
33644;SDS011;19986;48.190;16.366;2023-09-07T11:46:10;32.65;;;30.85;;
33644;SDS011;19986;48.190;16.366;2023-09-07T11:48:36;33.75;;;31.85;;
33644;SDS011;19986;48.190;16.366;2023-09-07T11:51:02;33.03;;;31.23;;
33644;SDS011;19986;48.190;16.366;2023-09-07T11:53:28;32.78;;;30.90;;
33644;SDS011;19986;48.190;16.366;2023-09-07T11:55:55;34.05;;;31.45;;
33644;SDS011;19986;48.190;16.366;2023-09-07T11:58:21;33.58;;;31.65;;
33644;SDS011;19986;48.190;16.366;2023-09-07T12:00:47;32.60;;;30.67;;
33644;SDS011;19986;48.190;16.366;2023-09-07T12:03:13;33.40;;;31.60;;
33644;SDS011;19986;48.190;16.366;2023-09-07T12:05:39;33.78;;;31.77;;
33644;SDS011;19986;48.190;16.366;2023-09-07T12:08:07;34.33;;;32.53;;
33644;SDS011;19986;48.190;16.366;2023-09-07T12:10:33;32.45;;;30.45;;
33644;SDS011;19986;48.190;16.366;2023-09-07T12:12:59;33.40;;;31.75;;
33644;SDS011;19986;48.190;16.366;2023-09-07T12:15:25;35.05;;;32.90;;
33644;SDS011;19986;48.190;16.366;2023-09-07T12:17:51;34.92;;;32.92;;
33644;SDS011;19986;48.190;16.366;2023-09-07T12:20:20;33.75;;;32.05;;
33644;SDS011;19986;48.190;16.366;2023-09-07T12:22:47;32.17;;;30.45;;
33644;SDS011;19986;48.190;16.366;2023-09-07T12:25:14;33.13;;;31.33;;
33644;SDS011;19986;48.190;16.366;2023-09-07T12:27:40;31.92;;;30.20;;
33644;SDS011;19986;48.190;16.366;2023-09-07T12:30:09;33.92;;;32.00;;
33644;SDS011;19986;48.190;16.366;2023-09-07T12:32:38;31.25;;;29.55;;
33644;SDS011;19986;48.190;16.366;2023-09-07T12:35:05;34.05;;;32.13;;
33644;SDS011;19986;48.190;16.366;2023-09-07T12:37:34;34.78;;;32.58;;
33644;SDS011;19986;48.190;16.366;2023-09-07T12:40:01;31.55;;;29.90;;
33644;SDS011;19986;48.190;16.366;2023-09-07T12:42:30;30.65;;;28.63;;
33644;SDS011;19986;48.190;16.366;2023-09-07T12:44:56;33.88;;;31.92;;
33644;SDS011;19986;48.190;16.366;2023-09-07T12:47:22;32.30;;;30.52;;
33644;SDS011;19986;48.190;16.366;2023-09-07T12:49:48;31.48;;;29.67;;
33644;SDS011;19986;48.190;16.366;2023-09-07T12:52:13;33.40;;;31.23;;
33644;SDS011;19986;48.190;16.366;2023-09-07T12:54:40;32.35;;;30.38;;
33644;SDS011;19986;48.190;16.366;2023-09-07T12:57:05;32.20;;;30.38;;
33644;SDS011;19986;48.190;16.366;2023-09-07T12:59:33;31.40;;;29.70;;
33644;SDS011;19986;48.190;16.366;2023-09-07T13:01:58;34.70;;;32.35;;
33644;SDS011;19986;48.190;16.366;2023-09-07T13:04:24;33.30;;;31.38;;
33644;SDS011;19986;48.190;16.366;2023-09-07T13:06:50;32.08;;;30.08;;
33644;SDS011;19986;48.190;16.366;2023-09-07T13:09:16;32.42;;;30.15;;
33644;SDS011;19986;48.190;16.366;2023-09-07T13:11:42;33.42;;;31.55;;
33644;SDS011;19986;48.190;16.366;2023-09-07T13:14:08;31.88;;;30.17;;
33644;SDS011;19986;48.190;16.366;2023-09-07T13:16:34;32.38;;;30.58;;
33644;SDS011;19986;48.190;16.366;2023-09-07T13:19:00;31.42;;;29.42;;
33644;SDS011;19986;48.190;16.366;2023-09-07T13:21:27;32.35;;;30.55;;
33644;SDS011;19986;48.190;16.366;2023-09-07T13:23:53;32.97;;;30.60;;
33644;SDS011;19986;48.190;16.366;2023-09-07T13:26:19;32.85;;;31.13;;
33644;SDS011;19986;48.190;16.366;2023-09-07T13:28:45;34.33;;;32.15;;
33644;SDS011;19986;48.190;16.366;2023-09-07T13:31:11;32.53;;;30.23;;
33644;SDS011;19986;48.190;16.366;2023-09-07T13:33:36;32.88;;;31.00;;
33644;SDS011;19986;48.190;16.366;2023-09-07T13:36:02;34.72;;;32.70;;
33644;SDS011;19986;48.190;16.366;2023-09-07T13:38:28;32.47;;;30.58;;
33644;SDS011;19986;48.190;16.366;2023-09-07T13:40:54;33.97;;;31.88;;
33644;SDS011;19986;48.190;16.366;2023-09-07T13:43:20;33.85;;;31.77;;
33644;SDS011;19986;48.190;16.366;2023-09-07T13:45:46;36.72;;;32.58;;
33644;SDS011;19986;48.190;16.366;2023-09-07T13:48:12;32.85;;;30.88;;
33644;SDS011;19986;48.190;16.366;2023-09-07T13:50:39;35.15;;;32.63;;
33644;SDS011;19986;48.190;16.366;2023-09-07T13:53:04;31.60;;;29.58;;
33644;SDS011;19986;48.190;16.366;2023-09-07T13:55:30;33.53;;;31.40;;
33644;SDS011;19986;48.190;16.366;2023-09-07T13:57:56;32.17;;;30.23;;
33644;SDS011;19986;48.190;16.366;2023-09-07T14:00:22;33.17;;;30.75;;
33644;SDS011;19986;48.190;16.366;2023-09-07T14:02:48;33.10;;;30.95;;
33644;SDS011;19986;48.190;16.366;2023-09-07T14:05:14;33.55;;;31.40;;